createdAt,value
2023-02-04T00:00:56.615Z,6.43
2023-02-04T00:03:26.712Z,6.33
2023-02-04T00:05:57.513Z,5.87
2023-02-04T00:08:25.788Z,5.63
2023-02-04T00:10:53.701Z,5.20
2023-02-04T00:13:21.600Z,6.07
2023-02-04T00:15:49.802Z,5.97
2023-02-04T00:18:17.654Z,6.37
2023-02-04T00:20:46.897Z,6.40
2023-02-04T00:23:16.146Z,6.60
2023-02-04T00:25:44.507Z,6.33
2023-02-04T00:28:12.445Z,6.73
2023-02-04T00:30:40.352Z,6.30
2023-02-04T00:33:08.260Z,6.03
2023-02-04T00:35:37.369Z,6.33
2023-02-04T00:38:05.583Z,6.03
2023-02-04T00:40:35.041Z,5.17
2023-02-04T00:43:02.983Z,5.27
2023-02-04T00:45:31.084Z,5.63
2023-02-04T00:47:59.106Z,5.77
2023-02-04T00:50:27.021Z,5.40
2023-02-04T00:52:54.949Z,5.33
2023-02-04T00:55:23.008Z,5.33
2023-02-04T00:57:52.237Z,5.70
2023-02-04T01:00:20.646Z,5.53
2023-02-04T01:02:48.519Z,6.07
2023-02-04T01:05:16.572Z,5.50
2023-02-04T01:07:44.509Z,5.40
2023-02-04T01:10:12.602Z,5.57
2023-02-04T01:12:40.566Z,5.00
2023-02-04T01:15:11.142Z,6.10
2023-02-04T01:17:39.015Z,5.73
2023-02-04T01:20:07.519Z,5.93
2023-02-04T01:22:35.438Z,7.03
2023-02-04T01:25:03.394Z,6.90
2023-02-04T01:27:31.279Z,6.87
2023-02-04T01:29:59.285Z,5.70
2023-02-04T01:32:28.581Z,5.80
2023-02-04T01:34:57.258Z,5.50
2023-02-04T01:37:25.278Z,5.23
2023-02-04T01:39:53.181Z,4.93
2023-02-04T01:42:21.374Z,6.50
2023-02-04T01:44:49.529Z,8.40
2023-02-04T01:47:17.416Z,8.10
2023-02-04T01:49:51.635Z,8.67
2023-02-04T01:52:19.753Z,9.07
2023-02-04T01:54:47.839Z,8.53
2023-02-04T01:57:17.603Z,8.53
2023-02-04T01:59:46.987Z,10.10
2023-02-04T02:02:40.314Z,8.07
2023-02-04T02:05:11.431Z,8.07
2023-02-04T02:07:40.151Z,8.70
2023-02-04T02:10:12.148Z,8.33
2023-02-04T02:12:40.378Z,9.10
2023-02-04T02:15:09.642Z,8.20
2023-02-04T02:17:37.881Z,9.70
2023-02-04T02:20:09.911Z,8.23
2023-02-04T02:22:43.830Z,7.50
2023-02-04T02:25:15.309Z,7.90
2023-02-04T02:27:44.063Z,10.50
2023-02-04T02:30:14.934Z,13.87
2023-02-04T02:32:43.020Z,10.17
2023-02-04T02:35:10.968Z,9.70
2023-02-04T02:37:39.045Z,8.17
2023-02-04T02:40:08.501Z,7.30
2023-02-04T02:42:38.205Z,6.83
2023-02-04T02:45:12.416Z,7.03
2023-02-04T02:47:40.534Z,7.40
2023-02-04T02:50:12.453Z,7.17
2023-02-04T02:52:40.345Z,7.40
2023-02-04T02:55:15.656Z,8.10
2023-02-04T02:57:46.844Z,8.47
2023-02-04T03:00:17.355Z,9.73
2023-02-04T03:02:46.161Z,8.77
2023-02-04T03:05:14.861Z,9.03
2023-02-04T03:07:42.793Z,9.53
2023-02-04T03:10:11.250Z,10.93
2023-02-04T03:12:39.668Z,10.63
2023-02-04T03:15:09.827Z,11.23
2023-02-04T03:17:37.815Z,11.73
2023-02-04T03:20:06.852Z,11.03
2023-02-04T03:22:35.039Z,11.80
2023-02-04T03:25:03.304Z,12.20
2023-02-04T03:27:31.421Z,10.77
2023-02-04T03:29:59.435Z,10.07
2023-02-04T03:32:28.657Z,10.50
2023-02-04T03:34:56.532Z,10.57
2023-02-04T03:37:24.400Z,12.97
2023-02-04T03:39:52.264Z,13.77
2023-02-04T03:42:20.155Z,16.13
2023-02-04T03:44:48.027Z,12.37
2023-02-04T03:47:15.926Z,10.43
2023-02-04T03:49:45.169Z,13.23
2023-02-04T03:52:13.040Z,9.47
2023-02-04T03:54:40.975Z,11.07
2023-02-04T03:57:08.926Z,10.13
2023-02-04T03:59:36.813Z,10.33
2023-02-04T04:02:04.933Z,9.50
2023-02-04T04:04:32.832Z,10.07
2023-02-04T04:07:02.130Z,8.77
2023-02-04T04:09:30.242Z,8.33
2023-02-04T04:11:58.395Z,7.93
2023-02-04T04:14:26.277Z,7.23
2023-02-04T04:16:54.136Z,7.80
2023-02-04T04:19:22.060Z,8.40
2023-02-04T04:21:49.955Z,9.17
2023-02-04T04:24:19.310Z,10.43
2023-02-04T04:26:47.181Z,9.70
2023-02-04T04:29:15.032Z,9.93
2023-02-04T04:31:42.982Z,9.60
2023-02-04T04:34:10.894Z,10.37
2023-02-04T04:36:39.121Z,10.67
2023-02-04T04:39:06.947Z,10.43
2023-02-04T04:41:36.242Z,9.77
2023-02-04T04:44:04.157Z,8.13
2023-02-04T04:46:32.090Z,8.27
2023-02-04T04:48:59.957Z,7.23
2023-02-04T04:51:27.808Z,7.03
2023-02-04T04:53:55.645Z,6.33
2023-02-04T04:56:23.525Z,6.93
2023-02-04T04:58:53.206Z,6.97
2023-02-04T05:01:22.719Z,7.07
2023-02-04T05:03:50.830Z,7.17
2023-02-04T05:06:25.224Z,6.83
2023-02-04T05:08:53.173Z,6.97
2023-02-04T05:11:21.156Z,7.60
2023-02-04T05:13:49.286Z,7.33
2023-02-04T05:16:18.580Z,6.93
2023-02-04T05:18:46.499Z,6.73
2023-02-04T05:21:14.405Z,4.50
2023-02-04T05:23:42.382Z,5.87
2023-02-04T05:26:12.346Z,2.83
2023-02-04T05:28:41.520Z,2.33
2023-02-04T05:31:09.621Z,2.17
2023-02-04T05:33:38.942Z,2.07
2023-02-04T05:36:07.283Z,2.00
2023-02-04T05:38:35.202Z,2.27
2023-02-04T05:41:03.060Z,2.03
2023-02-04T05:43:30.915Z,1.90
2023-02-04T05:45:59.147Z,2.00
2023-02-04T05:48:27.030Z,2.10
2023-02-04T05:50:56.253Z,2.13
2023-02-04T05:53:26.117Z,2.30
2023-02-04T05:55:54.140Z,2.07
2023-02-04T05:58:22.026Z,2.30
2023-02-04T06:00:50.319Z,2.10
2023-02-04T06:03:19.570Z,2.20
2023-02-04T06:05:47.452Z,2.50
2023-02-04T06:08:16.896Z,2.47
2023-02-04T06:10:44.742Z,2.40
2023-02-04T06:13:12.629Z,2.63
2023-02-04T06:15:40.596Z,2.77
2023-02-04T06:18:08.868Z,3.00
2023-02-04T06:20:36.755Z,2.63
2023-02-04T06:23:04.741Z,2.70
2023-02-04T06:25:34.033Z,2.87
2023-02-04T06:28:01.977Z,2.60
2023-02-04T06:30:30.576Z,2.47
2023-02-04T06:33:01.318Z,2.27
2023-02-04T06:35:29.178Z,2.50
2023-02-04T06:37:57.050Z,2.20
2023-02-04T06:40:24.964Z,2.47
2023-02-04T06:42:54.215Z,2.40
2023-02-04T06:45:24.329Z,2.50
2023-02-04T06:47:52.457Z,2.63
2023-02-04T06:50:20.620Z,3.07
2023-02-04T06:52:49.140Z,2.70
2023-02-04T06:55:18.572Z,3.30
2023-02-04T06:57:46.425Z,2.70
2023-02-04T07:00:16.463Z,3.00
2023-02-04T07:02:46.149Z,3.00
2023-02-04T07:05:14.288Z,2.67
2023-02-04T07:07:42.808Z,2.80
2023-02-04T07:10:11.512Z,3.17
2023-02-04T07:12:40.093Z,2.83
2023-02-04T07:15:08.760Z,3.10
2023-02-04T07:17:38.099Z,2.60
2023-02-04T07:20:06.583Z,2.67
2023-02-04T07:22:34.709Z,2.63
2023-02-04T07:25:02.634Z,2.80
2023-02-04T07:27:30.559Z,2.83
2023-02-04T07:29:58.625Z,2.63
2023-02-04T07:32:27.807Z,2.93
2023-02-04T07:34:57.057Z,2.80
2023-02-04T07:37:25.274Z,2.90
2023-02-04T07:39:53.483Z,3.73
2023-02-04T07:42:21.341Z,3.27
2023-02-04T07:44:49.313Z,3.30
2023-02-04T07:47:17.219Z,3.20
2023-02-04T07:49:45.925Z,3.50
2023-02-04T07:52:16.555Z,3.40
2023-02-04T07:54:44.459Z,3.20
2023-02-04T07:57:12.448Z,2.87
2023-02-04T07:59:40.378Z,2.90
2023-02-04T08:02:09.571Z,2.70
2023-02-04T08:04:39.878Z,2.60
2023-02-04T08:07:07.795Z,2.57
2023-02-04T08:09:37.062Z,2.57
2023-02-04T08:12:05.334Z,2.90
2023-02-04T08:14:33.339Z,2.63
2023-02-04T08:17:01.221Z,3.37
2023-02-04T08:19:29.113Z,3.33
2023-02-04T08:21:57.357Z,3.03
2023-02-04T08:24:25.314Z,3.20
2023-02-04T08:26:55.684Z,3.10
2023-02-04T08:29:23.547Z,3.10
2023-02-04T08:31:51.443Z,2.77
2023-02-04T08:34:19.948Z,2.73
2023-02-04T08:36:48.249Z,2.50
2023-02-04T08:39:16.182Z,2.70
2023-02-04T08:41:44.077Z,2.70
2023-02-04T08:44:15.444Z,3.53
2023-02-04T08:46:43.737Z,3.07
2023-02-04T08:49:11.754Z,3.20
2023-02-04T08:51:39.629Z,4.77
2023-02-04T08:54:07.582Z,3.47
2023-02-04T08:56:37.178Z,3.47
2023-02-04T08:59:05.817Z,4.13
2023-02-04T09:01:36.895Z,3.47
2023-02-04T09:04:05.010Z,3.70
2023-02-04T09:06:36.195Z,3.53
2023-02-04T09:09:04.178Z,4.50
2023-02-04T09:11:32.064Z,3.97
2023-02-04T09:13:59.917Z,4.30
2023-02-04T09:16:27.881Z,4.20
2023-02-04T09:19:07.363Z,4.90
2023-02-04T09:21:35.270Z,4.10
2023-02-04T09:24:03.090Z,3.90
2023-02-04T09:26:31.189Z,3.77
2023-02-04T09:28:59.037Z,4.77
2023-02-04T09:31:26.969Z,3.97
2023-02-04T09:33:55.765Z,5.73
2023-02-04T09:36:28.458Z,4.90
2023-02-04T09:38:56.826Z,3.37
2023-02-04T09:41:24.745Z,3.10
2023-02-04T09:43:52.685Z,3.07
2023-02-04T09:46:22.928Z,3.17
2023-02-04T09:48:51.696Z,3.40
2023-02-04T09:51:23.596Z,3.50
2023-02-04T09:53:54.929Z,4.00
2023-02-04T09:56:22.828Z,3.37
2023-02-04T09:58:54.326Z,2.90
2023-02-04T10:01:22.671Z,3.20
2023-02-04T10:03:51.628Z,3.67
2023-02-04T10:06:21.674Z,3.03
2023-02-04T10:08:51.498Z,3.43
2023-02-04T10:11:23.499Z,3.67
2023-02-04T10:13:54.158Z,3.07
2023-02-04T10:16:29.861Z,4.40
2023-02-04T10:18:59.497Z,3.07
2023-02-04T10:21:30.105Z,2.57
2023-02-04T10:23:59.828Z,3.33
2023-02-04T10:26:31.304Z,3.20
2023-02-04T10:29:01.048Z,2.20
2023-02-04T10:31:36.165Z,2.70
2023-02-04T10:34:18.411Z,2.40
2023-02-04T10:36:49.193Z,3.03
2023-02-04T10:39:19.506Z,3.00
2023-02-04T10:41:51.562Z,2.83
2023-02-04T10:44:22.047Z,2.60
2023-02-04T10:46:52.255Z,2.30
2023-02-04T10:49:24.482Z,2.40
2023-02-04T10:51:53.800Z,2.30
2023-02-04T10:54:33.861Z,2.07
2023-02-04T10:57:13.783Z,2.30
2023-02-04T10:59:42.736Z,5.97
2023-02-04T11:02:36.709Z,2.27
2023-02-04T11:05:08.123Z,2.03
2023-02-04T11:07:35.992Z,2.73
2023-02-04T11:10:04.344Z,2.20
2023-02-04T11:12:42.810Z,3.10
2023-02-04T11:15:45.603Z,2.33
2023-02-04T11:18:26.480Z,2.20
2023-02-04T11:20:58.579Z,3.10
2023-02-04T11:23:37.085Z,2.77
2023-02-04T11:26:33.115Z,2.67
2023-02-04T11:29:32.714Z,2.30
2023-02-04T11:32:03.560Z,2.70
2023-02-04T11:34:45.110Z,2.67
2023-02-04T11:37:20.253Z,3.60
2023-02-04T11:39:51.375Z,2.80
2023-02-04T11:42:22.857Z,2.60
2023-02-04T11:44:59.224Z,2.10
2023-02-04T11:47:28.867Z,2.70
2023-02-04T11:49:59.310Z,2.63
2023-02-04T11:52:27.404Z,2.37
2023-02-04T11:54:56.761Z,2.30
2023-02-04T11:57:24.930Z,3.00
2023-02-04T11:59:53.075Z,2.67
2023-02-04T12:02:24.458Z,2.83
2023-02-04T12:04:55.425Z,2.47
2023-02-04T12:07:26.307Z,2.40
2023-02-04T12:09:54.986Z,3.00
2023-02-04T12:12:28.365Z,2.77
2023-02-04T12:15:04.017Z,3.00
2023-02-04T12:17:33.476Z,2.07
2023-02-04T12:20:03.796Z,2.90
2023-02-04T12:22:31.898Z,3.20
2023-02-04T12:25:00.097Z,4.90
2023-02-04T12:27:27.998Z,3.53
2023-02-04T12:29:55.905Z,3.30
2023-02-04T12:32:23.868Z,3.47
2023-02-04T12:34:53.291Z,3.57
2023-02-04T12:37:21.989Z,3.30
2023-02-04T12:39:50.107Z,3.23
2023-02-04T12:42:17.995Z,3.57
2023-02-04T12:44:47.568Z,3.70
2023-02-04T12:47:15.467Z,3.50
2023-02-04T12:49:43.807Z,3.57
2023-02-04T12:52:13.396Z,3.80
2023-02-04T12:54:41.269Z,3.63
2023-02-04T12:57:09.343Z,3.33
2023-02-04T12:59:37.302Z,2.73
2023-02-04T13:02:05.400Z,2.60
2023-02-04T13:04:35.461Z,2.50
2023-02-04T13:07:03.797Z,2.60
2023-02-04T13:09:33.125Z,2.80
2023-02-04T13:12:02.545Z,2.40
2023-02-04T13:14:30.410Z,2.67
2023-02-04T13:16:58.398Z,3.00
2023-02-04T13:19:28.161Z,2.60
2023-02-04T13:21:56.041Z,2.30
2023-02-04T13:24:24.800Z,2.40
2023-02-04T13:26:54.304Z,2.50
2023-02-04T13:29:22.935Z,1.90
2023-02-04T13:31:51.202Z,1.80
2023-02-04T13:34:19.554Z,1.70
2023-02-04T13:36:48.387Z,1.57
2023-02-04T13:39:17.080Z,2.87
2023-02-04T13:41:45.017Z,3.00
2023-02-04T13:44:14.481Z,2.40
2023-02-04T13:46:42.393Z,1.77
2023-02-04T13:49:10.652Z,1.70
2023-02-04T13:51:38.559Z,1.70
2023-02-04T13:54:06.766Z,1.70
2023-02-04T13:56:35.033Z,1.80
2023-02-04T13:59:03.624Z,2.50
2023-02-04T14:01:33.538Z,2.10
2023-02-04T14:04:01.992Z,2.17
2023-02-04T14:06:33.845Z,2.53
2023-02-04T14:09:02.078Z,3.30
2023-02-04T14:11:30.197Z,3.00
2023-02-04T14:13:58.118Z,3.43
2023-02-04T14:16:26.080Z,3.03
2023-02-04T14:18:55.327Z,3.00
2023-02-04T14:21:23.408Z,2.50
2023-02-04T14:23:53.606Z,2.80
2023-02-04T14:26:21.660Z,2.60
2023-02-04T14:28:49.603Z,3.07
2023-02-04T14:31:17.548Z,2.73
2023-02-04T14:33:45.469Z,2.83
2023-02-04T14:36:14.818Z,2.90
2023-02-04T14:38:42.684Z,2.30
2023-02-04T14:41:11.487Z,1.80
2023-02-04T14:43:39.403Z,1.83
2023-02-04T14:46:07.358Z,2.00
2023-02-04T14:48:35.500Z,1.70
2023-02-04T14:51:03.447Z,1.87
2023-02-04T14:53:32.781Z,1.90
2023-02-04T14:56:02.868Z,2.30
2023-02-04T14:58:30.774Z,2.07
2023-02-04T15:00:58.837Z,2.20
2023-02-04T15:03:26.810Z,2.20
2023-02-04T15:05:54.657Z,2.20
2023-02-04T15:08:22.740Z,2.30
2023-02-04T15:10:51.981Z,2.70
2023-02-04T15:13:20.266Z,2.50
2023-02-04T15:15:48.216Z,2.77
2023-02-04T15:18:16.250Z,2.47
2023-02-04T15:20:44.153Z,2.60
2023-02-04T15:23:13.175Z,2.50
2023-02-04T15:25:41.197Z,2.53
2023-02-04T15:28:12.159Z,3.60
2023-02-04T15:30:40.631Z,3.90
2023-02-04T15:33:08.606Z,4.67
2023-02-04T15:35:36.464Z,3.40
2023-02-04T15:38:04.464Z,2.83
2023-02-04T15:40:49.716Z,2.57
2023-02-04T15:43:22.983Z,2.47
2023-02-04T15:45:50.932Z,2.70
2023-02-04T15:48:19.764Z,2.00
2023-02-04T15:50:47.658Z,2.60
2023-02-04T15:53:15.756Z,2.40
2023-02-04T15:55:43.663Z,2.40
2023-02-04T15:58:11.884Z,2.83
2023-02-04T16:00:41.427Z,2.87
2023-02-04T16:03:09.554Z,2.80
2023-02-04T16:05:37.413Z,3.23
2023-02-04T16:08:05.899Z,3.20
2023-02-04T16:10:34.093Z,3.30
2023-02-04T16:13:02.312Z,3.10
2023-02-04T16:15:30.375Z,2.97
2023-02-04T16:18:01.014Z,3.00
2023-02-04T16:20:31.243Z,2.97
2023-02-04T16:23:01.562Z,2.70
2023-02-04T16:25:36.749Z,2.93
2023-02-04T16:28:06.351Z,3.00
2023-02-04T16:30:36.904Z,3.03
2023-02-04T16:33:07.936Z,3.23
2023-02-04T16:35:58.505Z,3.80
2023-02-04T16:38:27.481Z,3.70
2023-02-04T16:40:56.342Z,3.60
2023-02-04T16:43:25.352Z,3.70
2023-02-04T16:45:58.267Z,4.00
2023-02-04T16:48:28.953Z,3.80
2023-02-04T16:50:59.547Z,3.80
2023-02-04T16:53:31.022Z,4.40
2023-02-04T16:56:02.484Z,4.00
2023-02-04T16:58:31.958Z,3.57
2023-02-04T17:01:02.149Z,5.33
2023-02-04T17:03:32.644Z,4.00
2023-02-04T17:06:04.754Z,4.30
2023-02-04T17:08:37.378Z,4.03
2023-02-04T17:11:25.528Z,4.50
2023-02-04T17:13:55.153Z,4.20
2023-02-04T17:16:34.176Z,4.43
2023-02-04T17:19:05.563Z,5.07
2023-02-04T17:21:36.135Z,4.80
2023-02-04T17:24:04.520Z,4.80
2023-02-04T17:26:39.869Z,4.90
2023-02-04T17:29:12.581Z,4.37
2023-02-04T17:31:42.879Z,4.17
2023-02-04T17:34:17.253Z,3.83
2023-02-04T17:36:45.551Z,4.50
2023-02-04T17:39:14.184Z,4.10
2023-02-04T17:41:42.928Z,3.90
2023-02-04T17:44:16.974Z,3.80
2023-02-04T17:46:45.348Z,4.17
2023-02-04T17:49:28.960Z,3.50
2023-02-04T17:52:16.482Z,3.63
2023-02-04T17:54:45.411Z,3.90
2023-02-04T17:57:20.581Z,4.20
2023-02-04T17:59:50.113Z,4.00
2023-02-04T18:02:25.871Z,3.90
2023-02-04T18:05:00.796Z,3.80
2023-02-04T18:07:29.189Z,3.47
2023-02-04T18:10:10.992Z,4.00
2023-02-04T18:12:39.298Z,3.80
2023-02-04T18:15:33.087Z,3.83
2023-02-04T18:18:14.875Z,3.27
2023-02-04T18:20:46.275Z,3.40
2023-02-04T18:23:18.027Z,3.60
2023-02-04T18:25:50.850Z,3.07
2023-02-04T18:28:23.578Z,3.17
2023-02-04T18:30:55.666Z,2.93
2023-02-04T18:33:27.917Z,3.57
2023-02-04T18:36:02.133Z,3.40
2023-02-04T18:38:32.377Z,2.83
2023-02-04T18:41:12.753Z,3.30
2023-02-04T18:43:42.325Z,3.10
2023-02-04T18:46:24.754Z,3.00
2023-02-04T18:49:05.743Z,3.20
2023-02-04T18:51:39.773Z,2.70
2023-02-04T18:54:35.742Z,2.60
2023-02-04T18:57:29.323Z,2.90
2023-02-04T19:00:21.679Z,3.23
2023-02-04T19:02:59.017Z,2.80
2023-02-04T19:05:30.659Z,2.70
2023-02-04T19:08:27.148Z,2.70
2023-02-04T19:11:37.232Z,3.00
2023-02-04T19:14:19.438Z,2.97
2023-02-04T19:16:48.093Z,3.00
2023-02-04T19:19:41.141Z,7.03
2023-02-04T19:22:23.134Z,2.80
2023-02-04T19:25:27.849Z,2.93
2023-02-04T19:27:57.510Z,2.60
2023-02-04T19:30:46.818Z,2.07
2023-02-04T19:33:19.489Z,2.47
2023-02-04T19:35:50.450Z,2.50
2023-02-04T19:38:40.253Z,2.13
2023-02-04T19:41:41.658Z,2.20
2023-02-04T19:44:45.247Z,2.00
2023-02-04T19:47:24.728Z,2.20
2023-02-04T19:49:56.416Z,1.80
2023-02-04T19:52:34.812Z,3.27
2023-02-04T19:55:23.754Z,2.00
2023-02-04T19:57:55.224Z,1.90
2023-02-04T20:00:36.481Z,1.80
2023-02-04T20:03:13.662Z,2.00
2023-02-04T20:05:42.934Z,2.10
2023-02-04T20:08:42.951Z,2.10
2023-02-04T20:11:45.476Z,2.23
2023-02-04T20:14:24.348Z,2.20
2023-02-04T20:16:54.370Z,2.50
2023-02-04T20:19:26.733Z,2.63
2023-02-04T20:22:27.537Z,2.50
2023-02-04T20:24:57.411Z,2.40
2023-02-04T20:27:27.019Z,2.57
2023-02-04T20:30:01.871Z,2.50
2023-02-04T20:32:30.243Z,2.23
2023-02-04T20:35:02.728Z,2.33
2023-02-04T20:37:30.694Z,2.10
2023-02-04T20:39:59.996Z,2.00
2023-02-04T20:42:47.159Z,1.80
2023-02-04T20:45:37.410Z,1.87
2023-02-04T20:48:29.879Z,1.83
2023-02-04T20:50:58.666Z,1.80
2023-02-04T20:53:28.320Z,1.50
2023-02-04T20:56:03.642Z,1.60
2023-02-04T20:58:36.999Z,1.83
2023-02-04T21:01:20.455Z,2.00
2023-02-04T21:03:50.253Z,1.90
2023-02-04T21:06:25.088Z,1.90
2023-02-04T21:08:54.076Z,1.77
2023-02-04T21:11:22.924Z,2.10
2023-02-04T21:13:53.418Z,1.80
2023-02-04T21:16:23.081Z,3.20
2023-02-04T21:18:51.325Z,2.27
2023-02-04T21:21:20.422Z,2.07
2023-02-04T21:23:48.562Z,2.27
2023-02-04T21:26:16.466Z,1.93
2023-02-04T21:28:44.486Z,2.40
2023-02-04T21:31:12.605Z,2.30
2023-02-04T21:33:41.861Z,2.27
2023-02-04T21:36:10.168Z,2.40
2023-02-04T21:38:38.244Z,2.70
2023-02-04T21:41:06.564Z,2.40
2023-02-04T21:43:34.468Z,2.50
2023-02-04T21:46:02.420Z,2.27
2023-02-04T21:48:32.289Z,2.33
2023-02-04T21:51:03.684Z,2.40
2023-02-04T21:53:48.857Z,2.30
2023-02-04T21:56:16.792Z,2.43
2023-02-04T21:58:44.642Z,2.20
2023-02-04T22:01:12.704Z,2.00
2023-02-04T22:03:40.730Z,1.73
2023-02-04T22:06:10.233Z,2.37
2023-02-04T22:08:38.121Z,2.20
2023-02-04T22:11:06.419Z,2.10
2023-02-04T22:13:34.608Z,2.20
2023-02-04T22:16:02.525Z,1.97
2023-02-04T22:18:30.617Z,2.20
2023-02-04T22:20:58.469Z,2.20
2023-02-04T22:23:27.707Z,2.60
2023-02-04T22:25:55.787Z,2.40
2023-02-04T22:28:23.741Z,2.40
2023-02-04T22:30:53.950Z,2.80
2023-02-04T22:33:22.360Z,2.67
2023-02-04T22:35:52.560Z,2.63
2023-02-04T22:38:21.120Z,2.57
2023-02-04T22:40:50.458Z,2.33
2023-02-04T22:43:18.353Z,2.47
2023-02-04T22:45:46.313Z,2.77
2023-02-04T22:48:14.541Z,2.97
2023-02-04T22:50:43.783Z,2.87
2023-02-04T22:53:11.697Z,2.43
2023-02-04T22:55:39.639Z,2.47
2023-02-04T22:58:08.886Z,2.60
2023-02-04T23:00:38.447Z,2.50
2023-02-04T23:03:06.413Z,2.43
2023-02-04T23:05:36.011Z,2.60
2023-02-04T23:08:03.970Z,2.57
2023-02-04T23:10:31.923Z,2.47
2023-02-04T23:12:59.814Z,2.90
2023-02-04T23:15:29.147Z,2.83
2023-02-04T23:17:57.124Z,2.60
2023-02-04T23:20:25.374Z,2.67
2023-02-04T23:22:54.448Z,2.57
2023-02-04T23:25:22.635Z,2.87
2023-02-04T23:27:50.700Z,2.90
2023-02-04T23:30:20.040Z,2.73
2023-02-04T23:32:49.350Z,2.87
2023-02-04T23:35:17.681Z,3.20
2023-02-04T23:37:45.577Z,3.00
2023-02-04T23:40:13.501Z,3.13
2023-02-04T23:42:41.331Z,3.07
2023-02-04T23:45:09.738Z,3.10
2023-02-04T23:47:37.672Z,3.30
2023-02-04T23:50:09.046Z,3.47
2023-02-04T23:52:36.914Z,4.23
2023-02-04T23:55:05.365Z,3.40
2023-02-04T23:57:33.354Z,3.30
